createdAt,value
2022-12-28T00:01:23.557Z,74.80
2022-12-28T00:03:52.529Z,74.93
2022-12-28T00:06:22.398Z,74.65
2022-12-28T00:08:53.798Z,74.96
2022-12-28T00:11:26.478Z,74.73
2022-12-28T00:14:00.727Z,74.50
2022-12-28T00:16:31.052Z,74.78
2022-12-28T00:19:01.130Z,74.67
2022-12-28T00:21:30.185Z,74.68
2022-12-28T00:24:00.894Z,74.54
2022-12-28T00:26:31.766Z,74.54
2022-12-28T00:29:04.597Z,74.50
2022-12-28T00:31:33.582Z,74.47
2022-12-28T00:34:01.983Z,74.41
2022-12-28T00:37:09.901Z,74.44
2022-12-28T00:39:20.817Z,74.22
2022-12-28T00:41:49.225Z,74.39
2022-12-28T00:44:17.450Z,74.35
2022-12-28T00:46:45.742Z,74.18
2022-12-28T00:49:14.113Z,74.56
2022-12-28T00:51:42.339Z,74.34
2022-12-28T00:54:10.661Z,74.31
2022-12-28T00:56:41.786Z,74.15
2022-12-28T00:59:10.687Z,74.57
2022-12-28T01:01:39.808Z,74.33
2022-12-28T01:04:08.082Z,74.35
2022-12-28T01:06:36.340Z,74.42
2022-12-28T01:09:06.576Z,74.15
2022-12-28T01:11:36.025Z,74.41
2022-12-28T01:14:06.521Z,74.35
2022-12-28T01:16:36.530Z,74.25
2022-12-28T01:19:07.445Z,74.40
2022-12-28T01:21:37.591Z,74.44
2022-12-28T01:24:08.841Z,74.49
2022-12-28T01:26:37.637Z,74.44
2022-12-28T01:29:10.648Z,74.36
2022-12-28T01:31:38.889Z,74.50
2022-12-28T01:34:07.132Z,74.44
2022-12-28T01:36:36.043Z,74.52
2022-12-28T01:39:08.030Z,74.35
2022-12-28T01:41:39.521Z,74.37
2022-12-28T01:44:44.391Z,74.83
2022-12-28T01:47:20.693Z,75.12
2022-12-28T01:49:55.343Z,75.06
2022-12-28T01:52:28.807Z,75.62
2022-12-28T01:55:01.019Z,75.66
2022-12-28T01:57:34.764Z,75.92
2022-12-28T02:00:06.274Z,75.94
2022-12-28T02:02:45.629Z,75.92
2022-12-28T02:05:14.913Z,76.23
2022-12-28T02:07:47.736Z,76.13
2022-12-28T02:10:44.031Z,76.10
2022-12-28T02:13:06.624Z,76.10
2022-12-28T02:15:34.952Z,76.10
2022-12-28T02:18:05.143Z,75.92
2022-12-28T02:20:41.459Z,76.03
2022-12-28T02:23:28.660Z,75.63
2022-12-28T02:26:32.252Z,75.37
2022-12-28T02:29:16.538Z,75.15
2022-12-28T02:31:50.345Z,75.13
2022-12-28T02:34:27.709Z,74.74
2022-12-28T02:37:03.813Z,74.53
2022-12-28T02:39:39.438Z,74.60
2022-12-28T02:42:11.027Z,74.44
2022-12-28T02:44:58.365Z,74.60
2022-12-28T02:47:43.884Z,74.47
2022-12-28T02:50:16.656Z,74.51
2022-12-28T02:53:24.355Z,73.99
2022-12-28T02:56:09.522Z,73.89
2022-12-28T02:59:08.168Z,74.05
2022-12-28T03:02:06.364Z,74.18
2022-12-28T03:04:48.766Z,73.88
2022-12-28T03:07:39.220Z,73.85
2022-12-28T03:10:15.707Z,74.15
2022-12-28T03:12:49.755Z,74.37
2022-12-28T03:15:29.857Z,74.31
2022-12-28T03:18:24.473Z,73.96
2022-12-28T03:21:11.565Z,73.71
2022-12-28T03:24:01.094Z,73.91
2022-12-28T03:26:50.473Z,73.86
2022-12-28T03:29:39.425Z,73.75
2022-12-28T03:32:08.738Z,73.57
2022-12-28T03:34:39.874Z,73.58
2022-12-28T03:37:14.456Z,73.64
2022-12-28T03:39:51.782Z,73.62
2022-12-28T03:42:44.647Z,73.51
2022-12-28T03:45:44.385Z,73.83
2022-12-28T03:48:08.380Z,74.28
2022-12-28T03:50:40.563Z,74.55
2022-12-28T03:53:09.251Z,74.39
2022-12-28T03:55:40.691Z,74.46
2022-12-28T03:58:09.318Z,74.51
2022-12-28T04:00:39.238Z,74.57
2022-12-28T04:03:08.860Z,74.13
2022-12-28T04:05:38.571Z,74.32
2022-12-28T04:08:06.771Z,73.96
2022-12-28T04:10:35.477Z,73.72
2022-12-28T04:13:03.790Z,73.43
2022-12-28T04:16:00.639Z,73.30
2022-12-28T04:18:31.939Z,73.18
2022-12-28T04:21:02.923Z,73.30
2022-12-28T04:23:32.421Z,73.12
2022-12-28T04:26:22.553Z,73.07
2022-12-28T04:28:54.158Z,72.98
2022-12-28T04:31:25.464Z,72.88
2022-12-28T04:34:14.284Z,72.88
2022-12-28T04:36:50.472Z,72.92
2022-12-28T04:39:21.652Z,72.96
2022-12-28T04:41:50.148Z,72.84
2022-12-28T04:44:18.363Z,72.79
2022-12-28T04:46:46.725Z,73.02
2022-12-28T04:49:15.071Z,72.90
2022-12-28T04:51:43.285Z,72.99
2022-12-28T04:54:14.715Z,72.99
2022-12-28T04:56:42.974Z,73.08
2022-12-28T04:59:11.189Z,72.90
2022-12-28T05:01:39.671Z,72.93
2022-12-28T05:04:07.993Z,73.00
2022-12-28T05:06:36.253Z,72.87
2022-12-28T05:09:04.891Z,72.86
2022-12-28T05:11:34.555Z,72.88
2022-12-28T05:14:02.843Z,72.83
2022-12-28T05:16:31.618Z,72.83
2022-12-28T05:18:59.927Z,72.77
2022-12-28T05:21:29.555Z,72.94
2022-12-28T05:23:58.549Z,72.91
2022-12-28T05:26:28.755Z,72.94
2022-12-28T05:28:59.494Z,72.84
2022-12-28T05:31:28.993Z,72.83
2022-12-28T05:33:57.568Z,72.89
2022-12-28T05:36:27.584Z,72.99
2022-12-28T05:38:57.443Z,72.93
2022-12-28T05:41:27.238Z,72.83
2022-12-28T05:43:55.810Z,72.95
2022-12-28T05:46:27.834Z,72.95
2022-12-28T05:48:56.583Z,73.02
2022-12-28T05:51:26.295Z,72.96
2022-12-28T05:53:54.547Z,72.83
2022-12-28T05:56:24.939Z,73.08
2022-12-28T05:58:55.476Z,72.87
2022-12-28T06:01:27.640Z,72.94
2022-12-28T06:03:57.883Z,72.91
2022-12-28T06:06:26.495Z,72.99
2022-12-28T06:08:55.108Z,73.02
2022-12-28T06:11:26.259Z,73.03
2022-12-28T06:13:54.956Z,73.09
2022-12-28T06:16:25.371Z,73.06
2022-12-28T06:18:55.325Z,73.03
2022-12-28T06:21:25.464Z,73.11
2022-12-28T06:23:57.639Z,72.84
2022-12-28T06:26:26.680Z,73.02
2022-12-28T06:28:54.945Z,72.91
2022-12-28T06:31:24.952Z,73.06
2022-12-28T06:33:57.205Z,72.95
2022-12-28T06:36:27.878Z,73.03
2022-12-28T06:38:58.923Z,72.96
2022-12-28T06:41:28.337Z,72.93
2022-12-28T06:43:57.393Z,73.06
2022-12-28T06:46:27.601Z,73.09
2022-12-28T06:48:57.842Z,73.02
2022-12-28T06:51:27.425Z,73.03
2022-12-28T06:53:56.282Z,73.08
2022-12-28T06:56:26.013Z,73.06
2022-12-28T06:59:00.524Z,72.93
2022-12-28T07:01:33.014Z,72.79
2022-12-28T07:04:03.707Z,72.89
2022-12-28T07:06:36.196Z,72.97
2022-12-28T07:09:06.429Z,72.87
2022-12-28T07:11:35.475Z,72.83
2022-12-28T07:14:03.700Z,72.93
2022-12-28T07:19:00.327Z,72.90
2022-12-28T07:21:31.747Z,72.83
2022-12-28T07:24:00.567Z,72.93
2022-12-28T07:26:31.160Z,72.85
2022-12-28T07:29:01.130Z,72.74
2022-12-28T07:31:31.749Z,72.81
2022-12-28T07:34:01.777Z,72.86
2022-12-28T07:36:32.852Z,72.86
2022-12-28T07:39:01.578Z,72.90
2022-12-28T07:41:32.895Z,72.95
2022-12-28T07:44:01.473Z,72.84
2022-12-28T07:46:31.551Z,72.98
2022-12-28T07:49:00.948Z,73.03
2022-12-28T07:51:32.129Z,73.02
2022-12-28T07:54:01.723Z,73.04
2022-12-28T07:56:30.954Z,73.00
2022-12-28T07:59:00.768Z,73.06
2022-12-28T08:01:31.835Z,72.85
2022-12-28T08:04:02.050Z,73.06
2022-12-28T08:06:34.220Z,72.82
2022-12-28T08:09:02.845Z,72.81
2022-12-28T08:11:33.625Z,72.97
2022-12-28T08:14:02.463Z,72.79
2022-12-28T08:16:33.512Z,72.90
2022-12-28T08:19:01.811Z,73.15
2022-12-28T08:21:33.390Z,72.74
2022-12-28T08:24:02.460Z,72.94
2022-12-28T08:26:32.551Z,72.83
2022-12-28T08:29:03.038Z,72.95
2022-12-28T08:31:34.088Z,72.75
2022-12-28T08:34:04.876Z,72.93
2022-12-28T08:36:34.675Z,72.93
2022-12-28T08:39:03.756Z,72.98
2022-12-28T08:41:32.562Z,72.96
2022-12-28T08:44:01.226Z,72.90
2022-12-28T08:46:32.904Z,72.81
2022-12-28T08:49:01.783Z,72.99
2022-12-28T08:51:33.140Z,73.05
2022-12-28T08:54:03.963Z,72.83
2022-12-28T08:56:34.088Z,73.03
2022-12-28T08:59:02.854Z,73.03
2022-12-28T09:01:37.290Z,73.11
2022-12-28T09:04:12.946Z,73.10
2022-12-28T09:06:41.483Z,73.41
2022-12-28T09:09:14.653Z,73.58
2022-12-28T09:11:47.298Z,73.96
2022-12-28T09:14:23.274Z,74.46
2022-12-28T09:16:52.825Z,74.90
2022-12-28T09:19:21.107Z,74.89
2022-12-28T09:21:52.563Z,75.24
2022-12-28T09:24:22.516Z,75.28
2022-12-28T09:26:52.961Z,75.37
2022-12-28T09:29:21.846Z,75.44
2022-12-28T09:31:50.073Z,75.66
2022-12-28T09:37:07.373Z,76.01
2022-12-28T09:39:37.233Z,75.85
2022-12-28T09:42:12.040Z,75.98
2022-12-28T09:44:49.350Z,76.21
2022-12-28T09:47:32.787Z,76.45
2022-12-28T09:50:30.170Z,76.68
2022-12-28T09:53:29.356Z,76.83
2022-12-28T09:56:06.471Z,76.80
2022-12-28T09:58:43.982Z,76.67
2022-12-28T10:01:17.558Z,76.78
2022-12-28T10:03:47.523Z,76.97
2022-12-28T10:06:17.373Z,77.00
2022-12-28T10:08:49.164Z,76.31
2022-12-28T10:11:22.240Z,75.99
2022-12-28T10:13:56.809Z,75.86
2022-12-28T10:16:28.174Z,76.37
2022-12-28T10:18:56.777Z,75.60
2022-12-28T10:21:32.512Z,75.45
2022-12-28T10:26:52.340Z,75.70
2022-12-28T10:29:22.899Z,75.44
2022-12-28T10:32:00.118Z,75.57
2022-12-28T10:34:36.948Z,75.41
2022-12-28T10:37:14.540Z,75.23
2022-12-28T10:39:51.136Z,75.43
2022-12-28T10:42:26.435Z,75.89
2022-12-28T10:44:59.276Z,75.73
2022-12-28T10:47:31.529Z,76.11
2022-12-28T10:50:35.466Z,76.05
2022-12-28T10:52:58.292Z,76.05
2022-12-28T10:55:31.447Z,76.18
2022-12-28T11:00:58.154Z,76.75
2022-12-28T11:03:28.500Z,76.90
2022-12-28T11:06:15.360Z,76.59
2022-12-28T11:08:45.537Z,76.15
2022-12-28T11:11:20.796Z,75.70
2022-12-28T11:13:53.711Z,75.28
2022-12-28T11:16:23.519Z,75.43
2022-12-28T11:18:52.268Z,74.96
2022-12-28T11:21:22.216Z,75.09
2022-12-28T11:23:52.310Z,74.66
2022-12-28T11:26:21.662Z,74.18
2022-12-28T11:28:51.920Z,74.02
2022-12-28T11:31:28.421Z,73.12
2022-12-28T11:34:00.048Z,72.86
2022-12-28T11:36:29.360Z,72.61
2022-12-28T11:38:58.424Z,72.63
2022-12-28T11:41:51.191Z,72.44
2022-12-28T11:44:52.943Z,72.04
2022-12-28T11:47:32.847Z,72.13
2022-12-28T11:50:42.392Z,72.11
2022-12-28T11:53:51.054Z,72.29
2022-12-28T11:56:25.112Z,72.02
2022-12-28T11:59:23.529Z,71.72
2022-12-28T12:01:53.894Z,72.00
2022-12-28T12:04:38.055Z,72.21
2022-12-28T12:07:23.651Z,71.85
2022-12-28T12:10:21.191Z,71.94
2022-12-28T12:12:52.168Z,71.77
2022-12-28T12:15:23.193Z,71.87
2022-12-28T12:17:56.311Z,71.99
2022-12-28T12:20:48.462Z,71.73
2022-12-28T12:23:26.801Z,72.09
2022-12-28T12:25:57.223Z,72.16
2022-12-28T12:28:35.150Z,71.99
2022-12-28T12:31:06.681Z,71.69
2022-12-28T12:33:37.398Z,71.87
2022-12-28T12:36:23.786Z,71.92
2022-12-28T12:39:11.375Z,72.07
2022-12-28T12:41:49.884Z,71.65
2022-12-28T12:44:26.659Z,71.67
2022-12-28T12:47:24.540Z,71.79
2022-12-28T12:50:26.951Z,71.69
2022-12-28T12:53:07.450Z,71.66
2022-12-28T12:55:50.600Z,71.84
2022-12-28T12:58:25.107Z,71.68
2022-12-28T13:01:16.011Z,72.09
2022-12-28T13:03:53.037Z,72.28
2022-12-28T13:06:25.417Z,71.73
2022-12-28T13:09:01.796Z,72.35
2022-12-28T13:11:38.082Z,72.00
2022-12-28T13:14:07.688Z,72.29
2022-12-28T13:16:35.964Z,72.41
2022-12-28T13:19:07.103Z,72.27
2022-12-28T13:21:43.023Z,72.16
2022-12-28T13:24:22.873Z,72.22
2022-12-28T13:26:51.558Z,72.18
2022-12-28T13:29:21.923Z,72.34
2022-12-28T13:31:51.441Z,71.83
2022-12-28T13:34:24.360Z,72.51
2022-12-28T13:36:56.562Z,72.09
2022-12-28T13:39:28.086Z,72.54
2022-12-28T13:41:59.422Z,72.36
2022-12-28T13:44:35.772Z,72.91
2022-12-28T13:47:08.666Z,72.78
2022-12-28T13:49:42.937Z,72.50
2022-12-28T13:52:16.289Z,72.15
2022-12-28T13:54:51.058Z,72.72
2022-12-28T13:57:45.844Z,72.77
2022-12-28T14:00:10.277Z,72.85
2022-12-28T14:02:41.749Z,72.97
2022-12-28T14:05:17.649Z,72.32
2022-12-28T14:07:46.550Z,72.87
2022-12-28T14:10:16.751Z,72.95
2022-12-28T14:12:45.874Z,72.81
2022-12-28T14:15:15.025Z,72.06
2022-12-28T14:17:44.686Z,72.65
2022-12-28T14:20:13.334Z,72.32
2022-12-28T14:22:42.546Z,72.65
2022-12-28T14:25:12.776Z,72.70
2022-12-28T14:27:45.619Z,72.50
2022-12-28T14:30:26.106Z,72.84
2022-12-28T14:32:55.249Z,72.80
2022-12-28T14:35:25.623Z,73.17
2022-12-28T14:37:56.384Z,72.54
2022-12-28T14:40:31.310Z,72.59
2022-12-28T14:43:04.442Z,72.47
2022-12-28T14:46:06.717Z,72.47
2022-12-28T14:48:34.840Z,72.54
2022-12-28T14:51:06.274Z,72.30
2022-12-28T14:53:34.602Z,72.33
2022-12-28T14:56:08.193Z,72.35
2022-12-28T14:58:50.783Z,72.64
2022-12-28T15:01:20.978Z,72.93
2022-12-28T15:03:51.807Z,72.75
2022-12-28T15:06:20.871Z,72.48
2022-12-28T15:08:50.355Z,72.90
2022-12-28T15:11:20.045Z,72.94
2022-12-28T15:13:50.275Z,73.44
2022-12-28T15:16:20.760Z,73.27
2022-12-28T15:18:49.056Z,72.97
2022-12-28T15:21:19.503Z,73.14
2022-12-28T15:23:50.289Z,73.58
2022-12-28T15:26:18.658Z,73.46
2022-12-28T15:28:47.202Z,73.29
2022-12-28T15:31:18.859Z,73.55
2022-12-28T15:33:47.956Z,73.26
2022-12-28T15:36:18.323Z,73.55
2022-12-28T15:38:47.137Z,74.12
2022-12-28T15:41:33.466Z,73.84
2022-12-28T15:44:01.777Z,73.33
2022-12-28T15:46:31.714Z,73.67
2022-12-28T15:49:02.777Z,73.37
2022-12-28T15:51:31.067Z,73.40
2022-12-28T15:53:59.329Z,73.67
2022-12-28T15:56:29.538Z,73.19
2022-12-28T15:58:59.321Z,73.49
2022-12-28T16:01:30.158Z,73.22
2022-12-28T16:04:02.237Z,73.72
2022-12-28T16:06:32.164Z,74.04
2022-12-28T16:09:03.444Z,74.48
2022-12-28T16:11:34.177Z,74.49
2022-12-28T16:14:05.134Z,74.63
2022-12-28T16:16:37.510Z,74.52
2022-12-28T16:19:09.015Z,74.20
2022-12-28T16:21:37.639Z,73.98
2022-12-28T16:24:07.036Z,74.66
2022-12-28T16:26:35.573Z,74.50
2022-12-28T16:29:04.163Z,74.38
2022-12-28T16:31:35.369Z,74.42
2022-12-28T16:34:05.753Z,74.18
2022-12-28T16:36:36.178Z,74.28
2022-12-28T16:39:07.220Z,74.72
2022-12-28T16:41:37.518Z,74.08
2022-12-28T16:44:09.372Z,74.47
2022-12-28T16:46:37.719Z,74.16
2022-12-28T16:49:06.886Z,73.95
2022-12-28T16:51:36.580Z,73.80
2022-12-28T16:54:05.265Z,73.62
2022-12-28T16:56:35.641Z,74.09
2022-12-28T16:59:03.985Z,74.43
2022-12-28T17:01:33.262Z,74.12
2022-12-28T17:04:04.071Z,74.01
2022-12-28T17:06:33.676Z,74.12
2022-12-28T17:09:04.381Z,74.59
2022-12-28T17:11:33.840Z,74.97
2022-12-28T17:14:03.368Z,75.27
2022-12-28T17:16:32.774Z,74.81
2022-12-28T17:19:01.459Z,74.29
2022-12-28T17:21:30.359Z,74.47
2022-12-28T17:23:58.917Z,75.04
2022-12-28T17:26:28.628Z,75.21
2022-12-28T17:28:57.397Z,74.70
2022-12-28T17:31:26.015Z,75.21
2022-12-28T17:33:55.659Z,74.96
2022-12-28T17:36:23.971Z,74.56
2022-12-28T17:38:52.315Z,74.15
2022-12-28T17:41:23.192Z,73.99
2022-12-28T17:43:54.505Z,73.90
2022-12-28T17:46:23.353Z,73.75
2022-12-28T17:48:53.192Z,74.36
2022-12-28T17:51:23.794Z,73.77
2022-12-28T17:53:52.661Z,73.96
2022-12-28T17:56:20.981Z,73.96
2022-12-28T17:58:49.626Z,73.69
2022-12-28T18:01:19.422Z,73.75
2022-12-28T18:03:47.793Z,73.81
2022-12-28T18:06:16.168Z,73.58
2022-12-28T18:08:44.586Z,73.55
2022-12-28T18:11:13.076Z,73.47
2022-12-28T18:13:42.388Z,73.71
2022-12-28T18:16:15.644Z,73.55
2022-12-28T18:18:45.355Z,73.52
2022-12-28T18:21:21.004Z,73.65
2022-12-28T18:23:51.859Z,73.74
2022-12-28T18:26:22.790Z,74.30
2022-12-28T18:28:51.449Z,74.27
2022-12-28T18:31:20.680Z,73.74
2022-12-28T18:33:50.683Z,73.64
2022-12-28T18:36:19.297Z,73.46
2022-12-28T18:38:48.446Z,73.48
2022-12-28T18:41:18.681Z,73.28
2022-12-28T18:43:47.051Z,73.46
2022-12-28T18:46:15.940Z,73.09
2022-12-28T18:48:44.253Z,72.77
2022-12-28T18:51:17.113Z,72.60
2022-12-28T18:53:45.721Z,72.61
2022-12-28T18:56:16.029Z,72.50
2022-12-28T18:58:45.165Z,72.36
2022-12-28T19:04:03.743Z,72.72
2022-12-28T19:06:34.755Z,72.52
2022-12-28T19:09:03.858Z,72.43
2022-12-28T19:11:32.354Z,72.41
2022-12-28T19:14:02.459Z,72.54
2022-12-28T19:16:32.052Z,72.77
2022-12-28T19:19:00.881Z,72.64
2022-12-28T19:21:30.896Z,73.30
2022-12-28T19:24:03.609Z,73.42
2022-12-28T19:26:33.472Z,73.38
2022-12-28T19:29:03.317Z,73.39
2022-12-28T19:31:33.768Z,73.36
2022-12-28T19:34:02.171Z,73.15
2022-12-28T19:36:30.448Z,73.15
2022-12-28T19:39:00.127Z,73.05
2022-12-28T19:41:28.367Z,73.09
2022-12-28T19:43:56.981Z,73.06
2022-12-28T19:46:31.378Z,72.87
2022-12-28T19:49:01.482Z,73.31
2022-12-28T19:51:32.155Z,73.41
2022-12-28T19:54:02.960Z,73.56
2022-12-28T19:56:32.522Z,73.14
2022-12-28T19:59:06.566Z,73.11
2022-12-28T20:01:37.159Z,72.60
2022-12-28T20:04:13.302Z,72.46
2022-12-28T20:06:43.693Z,72.40
2022-12-28T20:09:15.051Z,72.12
2022-12-28T20:11:45.017Z,71.93
2022-12-28T20:14:14.839Z,72.04
2022-12-28T20:16:44.058Z,71.97
2022-12-28T20:19:12.955Z,71.92
2022-12-28T20:21:42.489Z,71.93
2022-12-28T20:24:14.882Z,72.10
2022-12-28T20:26:43.225Z,72.52
2022-12-28T20:29:13.498Z,72.95
2022-12-28T20:31:41.850Z,73.22
2022-12-28T20:34:10.387Z,74.25
2022-12-28T20:36:38.662Z,75.00
2022-12-28T20:39:08.751Z,75.11
2022-12-28T20:41:56.852Z,75.09
2022-12-28T20:44:28.176Z,74.31
2022-12-28T20:46:57.664Z,74.80
2022-12-28T20:49:27.534Z,75.03
2022-12-28T20:51:56.246Z,73.71
2022-12-28T20:54:25.176Z,73.21
2022-12-28T20:56:56.327Z,73.25
2022-12-28T20:59:26.028Z,73.51
2022-12-28T21:01:54.869Z,73.91
2022-12-28T21:04:24.535Z,74.02
2022-12-28T21:06:53.227Z,73.99
2022-12-28T21:09:21.672Z,73.44
2022-12-28T21:11:49.997Z,73.32
2022-12-28T21:14:19.747Z,72.92
2022-12-28T21:16:48.420Z,72.96
2022-12-28T21:19:16.879Z,72.34
2022-12-28T21:21:45.144Z,71.93
2022-12-28T21:24:13.360Z,71.92
2022-12-28T21:26:41.626Z,71.42
2022-12-28T21:29:10.260Z,71.15
2022-12-28T21:31:40.186Z,71.36
2022-12-28T21:34:09.647Z,71.22
2022-12-28T21:36:37.932Z,71.32
2022-12-28T21:39:08.434Z,71.16
2022-12-28T21:41:52.810Z,71.00
2022-12-28T21:44:22.653Z,71.16
2022-12-28T21:46:53.362Z,71.32
2022-12-28T21:49:22.306Z,71.00
2022-12-28T21:51:51.524Z,70.91
2022-12-28T21:54:22.614Z,70.84
2022-12-28T21:56:53.571Z,71.02
2022-12-28T21:59:22.642Z,71.58
2022-12-28T22:02:06.921Z,70.78
2022-12-28T22:04:58.532Z,70.86
2022-12-28T22:07:30.959Z,71.77
2022-12-28T22:10:16.562Z,71.00
2022-12-28T22:12:44.860Z,70.98
2022-12-28T22:15:32.487Z,71.13
2022-12-28T22:18:07.063Z,70.74
2022-12-28T22:20:37.190Z,71.00
2022-12-28T22:23:07.460Z,71.11
2022-12-28T22:25:37.536Z,71.11
2022-12-28T22:28:07.419Z,71.74
2022-12-28T22:30:37.568Z,71.06
2022-12-28T22:33:07.530Z,71.32
2022-12-28T22:35:36.248Z,71.09
2022-12-28T22:38:04.400Z,71.04
2022-12-28T22:40:32.648Z,71.08
2022-12-28T22:43:00.903Z,71.22
2022-12-28T22:45:29.349Z,71.22
2022-12-28T22:47:59.541Z,71.17
2022-12-28T22:50:29.718Z,71.21
2022-12-28T22:52:58.351Z,71.86
2022-12-28T22:55:26.627Z,71.21
2022-12-28T22:57:57.335Z,71.35
2022-12-28T23:00:25.711Z,71.30
2022-12-28T23:02:54.131Z,71.16
2022-12-28T23:05:22.520Z,71.45
2022-12-28T23:07:52.124Z,71.42
2022-12-28T23:10:20.446Z,71.50
2022-12-28T23:12:48.746Z,71.36
2022-12-28T23:15:16.330Z,71.40
2022-12-28T23:17:44.606Z,71.22
2022-12-28T23:20:30.778Z,72.03
2022-12-28T23:23:17.947Z,71.31
2022-12-28T23:26:03.402Z,71.58
2022-12-28T23:28:32.051Z,71.39
2022-12-28T23:31:00.485Z,71.48
2022-12-28T23:33:28.836Z,71.55
2022-12-28T23:35:57.146Z,72.03
2022-12-28T23:38:26.791Z,72.55
2022-12-28T23:41:15.151Z,72.41
2022-12-28T23:43:43.390Z,72.50
2022-12-28T23:46:11.686Z,72.34
2022-12-28T23:48:39.984Z,72.71
2022-12-28T23:51:09.010Z,72.85
2022-12-28T23:53:38.586Z,73.64
2022-12-28T23:56:07.887Z,73.60
2022-12-28T23:58:36.137Z,74.00
